createdAt,value
2022-11-05T00:02:32.481Z,3.35
2022-11-05T00:05:18.532Z,3.22
2022-11-05T00:08:11.020Z,2.97
2022-11-05T00:10:38.822Z,2.78
2022-11-05T00:13:26.361Z,2.80
2022-11-05T00:16:12.778Z,2.80
2022-11-05T00:18:40.154Z,2.62
2022-11-05T00:21:30.293Z,2.45
2022-11-05T00:24:19.250Z,3.30
2022-11-05T00:26:50.818Z,2.92
2022-11-05T00:29:18.190Z,2.85
2022-11-05T00:31:45.881Z,2.85
2022-11-05T00:34:13.476Z,2.95
2022-11-05T00:36:40.788Z,3.17
2022-11-05T00:39:08.083Z,2.83
2022-11-05T00:41:35.641Z,2.97
2022-11-05T00:44:41.539Z,3.25
2022-11-05T00:47:27.730Z,2.75
2022-11-05T00:49:54.998Z,2.62
2022-11-05T00:52:48.563Z,2.47
2022-11-05T00:55:15.898Z,2.58
2022-11-05T00:57:43.450Z,2.50
2022-11-05T01:00:11.837Z,2.67
2022-11-05T01:02:39.166Z,2.45
2022-11-05T01:05:07.037Z,2.67
2022-11-05T01:07:34.515Z,2.47
2022-11-05T01:10:01.917Z,2.80
2022-11-05T01:12:30.967Z,2.67
2022-11-05T01:14:58.294Z,2.90
2022-11-05T01:17:25.591Z,2.78
2022-11-05T01:19:53.156Z,2.87
2022-11-05T01:22:20.476Z,3.22
2022-11-05T01:24:47.759Z,3.50
2022-11-05T01:27:15.330Z,3.12
2022-11-05T01:29:42.836Z,3.62
2022-11-05T01:32:10.167Z,3.12
2022-11-05T01:34:37.815Z,3.37
2022-11-05T01:37:05.205Z,3.45
2022-11-05T01:39:32.519Z,3.65
2022-11-05T01:42:00.286Z,3.87
2022-11-05T01:44:54.292Z,3.67
2022-11-05T01:47:59.232Z,4.10
2022-11-05T01:50:47.422Z,3.50
2022-11-05T01:53:29.968Z,3.58
2022-11-05T01:56:08.814Z,4.07
2022-11-05T01:58:46.323Z,4.35
2022-11-05T02:01:13.628Z,4.37
2022-11-05T02:03:42.179Z,3.78
2022-11-05T02:06:10.474Z,4.50
2022-11-05T02:08:59.746Z,4.70
2022-11-05T02:11:27.647Z,5.03
2022-11-05T02:13:55.323Z,4.78
2022-11-05T02:16:48.895Z,5.18
2022-11-05T02:19:19.336Z,4.47
2022-11-05T02:22:12.834Z,4.55
2022-11-05T02:25:02.355Z,4.43
2022-11-05T02:27:37.747Z,4.75
2022-11-05T02:30:08.561Z,4.60
2022-11-05T02:33:05.117Z,4.72
2022-11-05T02:35:40.754Z,4.95
2022-11-05T02:38:23.742Z,5.18
2022-11-05T02:41:10.275Z,5.22
2022-11-05T02:43:47.316Z,5.30
2022-11-05T02:46:26.758Z,5.57
2022-11-05T02:49:09.672Z,5.60
2022-11-05T02:51:49.522Z,5.12
2022-11-05T02:54:20.964Z,5.47
2022-11-05T02:56:50.190Z,4.72
2022-11-05T02:59:17.496Z,5.55
2022-11-05T03:01:46.153Z,4.50
2022-11-05T03:04:16.671Z,4.93
2022-11-05T03:07:25.551Z,4.80
2022-11-05T03:10:13.666Z,4.10
2022-11-05T03:13:13.149Z,4.75
2022-11-05T03:16:19.422Z,4.87
2022-11-05T03:18:54.726Z,5.30
2022-11-05T03:21:34.502Z,4.80
2022-11-05T03:24:12.523Z,5.07
2022-11-05T03:27:00.510Z,4.50
2022-11-05T03:29:34.815Z,4.47
2022-11-05T03:32:03.421Z,4.75
2022-11-05T03:34:35.133Z,4.53
2022-11-05T03:37:04.170Z,4.90
2022-11-05T03:39:36.202Z,4.03
2022-11-05T03:42:05.695Z,4.40
2022-11-05T03:44:35.139Z,4.07
2022-11-05T03:47:06.031Z,4.25
2022-11-05T03:49:38.026Z,4.22
2022-11-05T03:52:12.299Z,4.03
2022-11-05T03:54:40.099Z,4.20
2022-11-05T03:57:15.163Z,3.97
2022-11-05T03:59:44.798Z,4.12
2022-11-05T04:02:13.696Z,4.40
2022-11-05T04:04:41.393Z,4.05
2022-11-05T04:07:28.819Z,4.45
2022-11-05T04:10:19.674Z,4.62
2022-11-05T04:13:05.392Z,4.15
2022-11-05T04:15:55.604Z,4.37
2022-11-05T04:18:23.071Z,4.05
2022-11-05T04:21:09.210Z,4.18
2022-11-05T04:23:55.204Z,4.07
2022-11-05T04:26:23.220Z,4.10
2022-11-05T04:29:09.889Z,4.40
2022-11-05T04:31:38.182Z,4.37
2022-11-05T04:34:05.649Z,4.53
2022-11-05T04:36:33.011Z,4.20
2022-11-05T04:39:00.687Z,4.60
2022-11-05T04:41:28.225Z,4.07
2022-11-05T04:43:55.570Z,4.30
2022-11-05T04:46:23.118Z,4.68
2022-11-05T04:48:50.454Z,4.45
2022-11-05T04:51:17.850Z,4.35
2022-11-05T04:53:45.431Z,4.85
2022-11-05T04:56:18.234Z,4.95
2022-11-05T04:58:45.835Z,4.95
2022-11-05T05:01:18.029Z,4.75
2022-11-05T05:03:49.974Z,4.28
2022-11-05T05:06:18.592Z,4.18
2022-11-05T05:08:51.021Z,4.00
2022-11-05T05:11:20.385Z,3.65
2022-11-05T05:13:48.658Z,4.05
2022-11-05T05:16:24.690Z,4.00
2022-11-05T05:18:52.578Z,4.00
2022-11-05T05:21:39.156Z,3.70
2022-11-05T05:24:13.991Z,4.20
2022-11-05T05:26:46.234Z,3.90
2022-11-05T05:31:41.751Z,3.35
2022-11-05T05:34:11.816Z,3.30
2022-11-05T05:36:39.463Z,3.58
2022-11-05T05:39:07.889Z,3.25
2022-11-05T05:41:35.208Z,3.40
2022-11-05T05:44:05.241Z,3.22
2022-11-05T05:46:32.523Z,3.10
2022-11-05T05:48:59.887Z,3.30
2022-11-05T05:51:27.440Z,3.62
2022-11-05T05:53:54.915Z,3.03
2022-11-05T05:56:22.261Z,3.35
2022-11-05T05:58:49.853Z,2.95
2022-11-05T06:01:19.645Z,3.05
2022-11-05T06:03:48.741Z,2.90
2022-11-05T06:06:19.707Z,3.10
2022-11-05T06:08:48.018Z,3.00
2022-11-05T06:11:15.597Z,4.12
2022-11-05T06:13:42.920Z,2.80
2022-11-05T06:16:10.484Z,5.60
2022-11-05T06:18:38.281Z,12.10
2022-11-05T06:21:11.152Z,4.60
2022-11-05T06:23:39.950Z,4.20
2022-11-05T06:26:09.585Z,3.00
2022-11-05T06:28:37.239Z,2.85
2022-11-05T06:31:04.987Z,3.22
2022-11-05T06:33:32.276Z,2.90
2022-11-05T06:36:01.075Z,3.03
2022-11-05T06:38:32.065Z,3.12
2022-11-05T06:40:59.727Z,2.80
2022-11-05T06:43:28.278Z,2.80
2022-11-05T06:45:56.559Z,3.00
2022-11-05T06:48:25.370Z,2.67
2022-11-05T06:50:52.720Z,2.90
2022-11-05T06:53:20.318Z,2.72
2022-11-05T06:55:47.984Z,2.55
2022-11-05T06:58:15.747Z,2.62
2022-11-05T07:00:43.350Z,2.62
2022-11-05T07:03:11.983Z,2.30
2022-11-05T07:05:43.993Z,2.65
2022-11-05T07:08:11.589Z,2.65
2022-11-05T07:10:38.934Z,2.40
2022-11-05T07:13:08.339Z,2.37
2022-11-05T07:15:37.564Z,2.20
2022-11-05T07:18:07.323Z,2.15
2022-11-05T07:20:35.072Z,2.20
2022-11-05T07:23:12.223Z,2.28
2022-11-05T07:25:40.498Z,1.98
2022-11-05T07:28:08.350Z,1.77
2022-11-05T07:30:35.921Z,1.90
2022-11-05T07:33:03.824Z,2.00
2022-11-05T07:35:31.554Z,1.98
2022-11-05T07:37:59.181Z,2.00
2022-11-05T07:40:28.187Z,1.95
2022-11-05T07:42:57.831Z,1.87
2022-11-05T07:45:26.452Z,2.08
2022-11-05T07:47:56.051Z,2.17
2022-11-05T07:50:25.131Z,2.17
2022-11-05T07:52:52.555Z,1.92
2022-11-05T07:55:20.379Z,2.33
2022-11-05T07:57:49.521Z,2.10
2022-11-05T08:00:20.401Z,2.08
2022-11-05T08:03:07.787Z,2.20
2022-11-05T08:05:38.534Z,1.90
2022-11-05T08:08:12.048Z,1.92
2022-11-05T08:10:39.478Z,2.30
2022-11-05T08:13:07.942Z,2.20
2022-11-05T08:15:35.992Z,2.12
2022-11-05T08:18:21.236Z,1.87
2022-11-05T08:20:49.204Z,2.35
2022-11-05T08:23:16.553Z,2.17
2022-11-05T08:25:43.872Z,1.85
2022-11-05T08:28:12.882Z,2.10
2022-11-05T08:30:40.705Z,2.15
2022-11-05T08:33:10.957Z,2.22
2022-11-05T08:35:39.385Z,2.17
2022-11-05T08:38:08.070Z,2.25
2022-11-05T08:40:36.147Z,2.22
2022-11-05T08:43:05.564Z,2.10
2022-11-05T08:45:33.956Z,2.42
2022-11-05T08:48:02.792Z,2.03
2022-11-05T08:50:30.876Z,1.98
2022-11-05T08:52:58.648Z,2.55
2022-11-05T08:55:26.716Z,2.35
2022-11-05T08:57:58.354Z,2.35
2022-11-05T09:00:26.516Z,2.55
2022-11-05T09:02:54.350Z,2.20
2022-11-05T09:05:21.682Z,2.12
2022-11-05T09:07:49.509Z,2.33
2022-11-05T09:10:17.076Z,3.08
2022-11-05T09:12:44.626Z,3.35
2022-11-05T09:15:11.982Z,2.90
2022-11-05T09:17:40.019Z,2.62
2022-11-05T09:20:08.546Z,3.00
2022-11-05T09:22:39.236Z,2.75
2022-11-05T09:25:10.584Z,2.40
2022-11-05T09:27:37.915Z,3.00
2022-11-05T09:30:05.590Z,2.85
2022-11-05T09:32:33.302Z,3.42
2022-11-05T09:35:01.231Z,2.80
2022-11-05T09:37:29.257Z,3.20
2022-11-05T09:39:56.829Z,2.92
2022-11-05T09:42:30.071Z,3.00
2022-11-05T09:45:01.333Z,3.50
2022-11-05T09:47:39.761Z,3.12
2022-11-05T09:50:09.582Z,3.05
2022-11-05T09:52:36.889Z,2.83
2022-11-05T09:55:14.923Z,3.25
2022-11-05T09:57:46.433Z,3.22
2022-11-05T10:00:16.873Z,3.60
2022-11-05T10:02:54.924Z,3.75
2022-11-05T10:05:24.323Z,3.55
2022-11-05T10:07:59.414Z,3.60
2022-11-05T10:10:26.690Z,3.45
2022-11-05T10:12:57.385Z,3.40
2022-11-05T10:15:34.633Z,7.85
2022-11-05T10:18:14.203Z,3.55
2022-11-05T10:20:42.836Z,3.92
2022-11-05T10:23:13.000Z,3.12
2022-11-05T10:25:44.007Z,3.30
2022-11-05T10:28:17.273Z,4.22
2022-11-05T10:30:46.940Z,3.60
2022-11-05T10:35:51.399Z,3.55
2022-11-05T10:38:18.993Z,3.17
2022-11-05T10:41:09.373Z,4.65
2022-11-05T10:43:40.809Z,3.80
2022-11-05T10:46:23.829Z,3.47
2022-11-05T10:49:07.351Z,3.28
2022-11-05T10:51:34.914Z,3.17
2022-11-05T10:54:09.942Z,4.15
2022-11-05T10:56:39.272Z,4.78
2022-11-05T10:59:26.126Z,3.55
2022-11-05T11:02:22.238Z,3.87
2022-11-05T11:04:53.917Z,3.55
2022-11-05T11:07:25.473Z,3.93
2022-11-05T11:09:53.314Z,3.58
2022-11-05T11:12:24.172Z,3.33
2022-11-05T11:15:02.219Z,3.90
2022-11-05T11:17:32.332Z,3.75
2022-11-05T11:20:24.453Z,3.45
2022-11-05T11:23:13.938Z,3.87
2022-11-05T11:25:52.993Z,3.87
2022-11-05T11:28:32.832Z,4.00
2022-11-05T11:31:03.067Z,3.62
2022-11-05T11:33:31.728Z,4.20
2022-11-05T11:36:00.053Z,3.95
2022-11-05T11:38:31.936Z,3.70
2022-11-05T11:41:07.207Z,4.00
2022-11-05T11:43:36.922Z,3.83
2022-11-05T11:46:09.876Z,4.15
2022-11-05T11:48:40.891Z,3.33
2022-11-05T11:51:40.545Z,3.30
2022-11-05T11:54:19.401Z,3.85
2022-11-05T11:56:48.265Z,3.72
2022-11-05T12:00:06.736Z,3.65
2022-11-05T12:02:42.887Z,3.72
2022-11-05T12:05:18.212Z,3.00
2022-11-05T12:07:49.714Z,3.10
2022-11-05T12:10:51.603Z,3.20
2022-11-05T12:13:18.813Z,2.78
2022-11-05T12:16:14.647Z,3.20
2022-11-05T12:18:53.026Z,3.22
2022-11-05T12:21:54.045Z,3.53
2022-11-05T12:24:37.519Z,3.42
2022-11-05T12:27:08.044Z,3.83
2022-11-05T12:30:02.925Z,3.53
2022-11-05T12:32:47.316Z,3.40
2022-11-05T12:35:34.681Z,2.78
2022-11-05T12:38:25.044Z,3.00
2022-11-05T12:41:05.890Z,2.40
2022-11-05T12:44:13.202Z,3.10
2022-11-05T12:47:06.336Z,2.97
2022-11-05T12:49:37.999Z,2.37
2022-11-05T12:52:14.808Z,3.15
2022-11-05T12:54:58.722Z,3.60
2022-11-05T12:57:26.993Z,3.30
2022-11-05T13:00:04.279Z,3.70
2022-11-05T13:02:34.562Z,2.60
2022-11-05T13:05:23.691Z,2.17
2022-11-05T13:08:00.101Z,2.45
2022-11-05T13:10:41.414Z,2.65
2022-11-05T13:13:15.686Z,2.75
2022-11-05T13:15:50.819Z,2.50
2022-11-05T13:18:23.998Z,1.90
2022-11-05T13:20:53.779Z,2.00
2022-11-05T13:23:29.711Z,1.87
2022-11-05T13:26:14.475Z,2.65
2022-11-05T13:28:51.996Z,2.00
2022-11-05T13:31:21.847Z,1.80
2022-11-05T13:33:51.201Z,1.75
2022-11-05T13:36:50.611Z,2.10
2022-11-05T13:39:23.961Z,1.73
2022-11-05T13:42:19.998Z,1.50
2022-11-05T13:44:57.844Z,1.50
2022-11-05T13:47:38.531Z,1.73
2022-11-05T13:50:36.840Z,1.73
2022-11-05T13:53:22.699Z,1.92
2022-11-05T13:56:26.050Z,1.70
2022-11-05T13:58:56.061Z,2.80
2022-11-05T14:01:30.186Z,3.40
2022-11-05T14:03:57.920Z,4.30
2022-11-05T14:06:30.176Z,2.75
2022-11-05T14:09:01.762Z,2.22
2022-11-05T14:11:34.316Z,2.50
2022-11-05T14:14:05.452Z,1.98
2022-11-05T14:16:54.359Z,1.83
2022-11-05T14:19:32.780Z,1.95
2022-11-05T14:22:00.453Z,2.15
2022-11-05T14:24:42.712Z,2.05
2022-11-05T14:27:13.081Z,6.68
2022-11-05T14:29:42.647Z,3.40
2022-11-05T14:32:41.920Z,3.28
2022-11-05T14:35:15.394Z,3.28
2022-11-05T14:37:58.764Z,4.55
2022-11-05T14:40:39.107Z,4.50
2022-11-05T14:43:21.856Z,4.45
2022-11-05T14:46:00.792Z,3.10
2022-11-05T14:49:09.276Z,3.15
2022-11-05T14:51:44.220Z,3.15
2022-11-05T14:54:25.098Z,4.80
2022-11-05T14:57:00.801Z,4.20
2022-11-05T14:59:28.303Z,4.78
2022-11-05T15:02:13.699Z,3.33
2022-11-05T15:04:45.282Z,3.55
2022-11-05T15:07:21.902Z,2.47
2022-11-05T15:10:10.597Z,3.00
2022-11-05T15:12:42.459Z,2.85
2022-11-05T15:15:21.288Z,3.08
2022-11-05T15:18:02.043Z,2.75
2022-11-05T15:20:40.569Z,3.60
2022-11-05T15:23:12.958Z,2.67
2022-11-05T15:28:29.248Z,3.45
2022-11-05T15:31:04.753Z,2.42
2022-11-05T15:33:32.837Z,2.70
2022-11-05T15:36:09.237Z,2.40
2022-11-05T15:41:16.043Z,4.00
2022-11-05T15:43:48.356Z,3.85
2022-11-05T15:46:28.172Z,3.45
2022-11-05T15:48:58.398Z,3.40
2022-11-05T15:51:26.410Z,3.83
2022-11-05T15:54:16.092Z,2.92
2022-11-05T15:56:52.472Z,3.08
2022-11-05T15:59:21.502Z,2.72
2022-11-05T16:01:51.849Z,2.45
2022-11-05T16:04:20.696Z,2.28
2022-11-05T16:06:51.054Z,2.12
2022-11-05T16:09:39.934Z,2.50
2022-11-05T16:12:19.722Z,2.70
2022-11-05T16:14:59.960Z,2.58
2022-11-05T16:17:50.903Z,3.60
2022-11-05T16:20:29.616Z,4.60
2022-11-05T16:23:02.377Z,3.60
2022-11-05T16:25:31.406Z,3.10
2022-11-05T16:27:59.787Z,3.50
2022-11-05T16:30:28.379Z,3.10
2022-11-05T16:33:03.432Z,3.75
2022-11-05T16:35:31.026Z,3.62
2022-11-05T16:38:01.071Z,3.60
2022-11-05T16:40:29.385Z,3.45
2022-11-05T16:43:09.320Z,4.00
2022-11-05T16:45:41.246Z,3.17
2022-11-05T16:50:38.582Z,2.90
2022-11-05T16:53:05.927Z,2.97
2022-11-05T16:55:33.707Z,4.72
2022-11-05T16:58:01.027Z,5.00
2022-11-05T17:00:28.493Z,4.03
2022-11-05T17:02:56.476Z,4.15
2022-11-05T17:05:24.834Z,5.10
2022-11-05T17:07:52.652Z,5.47
2022-11-05T17:10:22.115Z,6.30
2022-11-05T17:12:49.771Z,6.75
2022-11-05T17:15:19.819Z,5.03
2022-11-05T17:17:47.474Z,5.90
2022-11-05T17:20:38.564Z,4.10
2022-11-05T17:23:10.727Z,3.70
2022-11-05T17:25:39.396Z,3.78
2022-11-05T17:28:06.804Z,3.55
2022-11-05T17:30:39.412Z,2.97
2022-11-05T17:33:10.741Z,3.17
2022-11-05T17:35:39.964Z,3.80
2022-11-05T17:38:07.709Z,3.55
2022-11-05T17:40:35.869Z,3.37
2022-11-05T17:43:03.798Z,4.00
2022-11-05T17:45:31.495Z,4.22
2022-11-05T17:47:58.786Z,5.07
2022-11-05T17:50:26.349Z,3.67
2022-11-05T17:52:53.661Z,3.72
2022-11-05T17:55:21.123Z,4.07
2022-11-05T17:57:50.427Z,3.90
2022-11-05T18:00:21.013Z,4.35
2022-11-05T18:02:49.652Z,5.70
2022-11-05T18:05:17.993Z,6.18
2022-11-05T18:07:46.015Z,4.90
2022-11-05T18:10:14.132Z,4.37
2022-11-05T18:12:41.552Z,4.93
2022-11-05T18:15:09.600Z,6.22
2022-11-05T18:17:37.202Z,6.03
2022-11-05T18:20:09.910Z,5.95
2022-11-05T18:22:41.295Z,6.10
2022-11-05T18:25:10.213Z,4.43
2022-11-05T18:27:37.716Z,4.25
2022-11-05T18:30:05.928Z,4.22
2022-11-05T18:32:33.411Z,4.75
2022-11-05T18:35:01.114Z,4.65
2022-11-05T18:37:28.826Z,4.75
2022-11-05T18:39:56.174Z,4.55
2022-11-05T18:42:23.569Z,3.45
2022-11-05T18:44:53.935Z,3.75
2022-11-05T18:47:21.287Z,4.10
2022-11-05T18:49:48.600Z,3.42
2022-11-05T18:52:16.518Z,3.33
2022-11-05T18:54:44.118Z,3.42
2022-11-05T18:57:11.450Z,4.03
2022-11-05T18:59:41.999Z,4.45
2022-11-05T19:02:11.349Z,5.47
2022-11-05T19:04:39.481Z,5.35
2022-11-05T19:07:08.176Z,4.85
2022-11-05T19:09:36.769Z,4.37
2022-11-05T19:12:05.573Z,4.87
2022-11-05T19:14:33.627Z,5.37
2022-11-05T19:17:01.479Z,4.95
2022-11-05T19:19:29.175Z,5.60
2022-11-05T19:21:57.048Z,5.93
2022-11-05T19:24:24.520Z,5.28
2022-11-05T19:26:52.159Z,4.82
2022-11-05T19:29:19.462Z,4.57
2022-11-05T19:31:46.921Z,4.40
2022-11-05T19:34:14.738Z,3.78
2022-11-05T19:36:42.539Z,4.37
2022-11-05T19:39:13.274Z,4.60
2022-11-05T19:41:41.050Z,3.83
2022-11-05T19:44:08.575Z,3.95
2022-11-05T19:46:35.916Z,3.58
2022-11-05T19:49:03.562Z,3.47
2022-11-05T19:51:32.234Z,3.58
2022-11-05T19:54:01.238Z,4.82
2022-11-05T19:56:30.694Z,3.60
2022-11-05T19:58:58.766Z,4.75
2022-11-05T20:01:27.593Z,4.43
2022-11-05T20:03:56.772Z,3.90
2022-11-05T20:06:32.888Z,4.93
2022-11-05T20:11:50.892Z,4.60
2022-11-05T20:14:18.486Z,4.62
2022-11-05T20:16:46.306Z,4.65
2022-11-05T20:19:17.087Z,4.43
2022-11-05T20:21:45.063Z,4.72
2022-11-05T20:24:18.823Z,4.10
2022-11-05T20:26:51.973Z,3.78
2022-11-05T20:29:19.304Z,3.58
2022-11-05T20:31:46.684Z,3.60
2022-11-05T20:34:14.251Z,6.40
2022-11-05T20:36:41.547Z,3.50
2022-11-05T20:39:10.095Z,4.03
2022-11-05T20:41:37.937Z,3.60
2022-11-05T20:44:05.295Z,3.60
2022-11-05T20:46:32.929Z,3.65
2022-11-05T20:49:00.522Z,3.30
2022-11-05T20:51:27.834Z,3.78
2022-11-05T20:54:00.215Z,3.92
2022-11-05T20:56:30.097Z,3.33
2022-11-05T20:58:58.858Z,3.05
2022-11-05T21:01:27.643Z,2.87
2022-11-05T21:03:55.756Z,3.40
2022-11-05T21:06:23.590Z,3.80
2022-11-05T21:08:51.962Z,3.40
2022-11-05T21:11:19.945Z,3.70
2022-11-05T21:13:47.644Z,3.22
2022-11-05T21:16:18.426Z,3.22
2022-11-05T21:18:47.137Z,3.92
2022-11-05T21:21:16.870Z,3.72
2022-11-05T21:23:44.633Z,3.92
2022-11-05T21:26:13.995Z,3.47
2022-11-05T21:28:41.715Z,3.70
2022-11-05T21:31:09.418Z,3.25
2022-11-05T21:33:37.532Z,3.47
2022-11-05T21:36:07.027Z,3.62
2022-11-05T21:38:34.350Z,3.80
2022-11-05T21:41:02.794Z,3.30
2022-11-05T21:43:30.176Z,3.70
2022-11-05T21:46:01.148Z,3.55
2022-11-05T21:48:28.758Z,3.97
2022-11-05T21:51:15.266Z,3.65
2022-11-05T21:54:01.188Z,3.17
2022-11-05T21:56:47.691Z,3.45
2022-11-05T21:59:36.096Z,3.37
2022-11-05T22:02:03.750Z,3.20
2022-11-05T22:04:36.074Z,3.25
2022-11-05T22:07:04.460Z,3.35
2022-11-05T22:09:32.032Z,3.10
2022-11-05T22:11:59.683Z,3.03
2022-11-05T22:14:27.091Z,3.08
2022-11-05T22:16:54.697Z,2.67
2022-11-05T22:19:22.644Z,3.17
2022-11-05T22:21:50.080Z,3.12
2022-11-05T22:24:18.199Z,3.25
2022-11-05T22:26:45.558Z,3.45
2022-11-05T22:29:13.194Z,3.37
2022-11-05T22:31:41.335Z,3.55
2022-11-05T22:34:09.900Z,4.05
2022-11-05T22:36:37.201Z,3.85
2022-11-05T22:39:05.268Z,4.60
2022-11-05T22:41:32.902Z,4.90
2022-11-05T22:44:00.210Z,5.35
2022-11-05T22:46:27.818Z,5.00
2022-11-05T22:48:56.231Z,5.00
2022-11-05T22:51:25.871Z,5.80
2022-11-05T22:53:54.811Z,4.87
2022-11-05T22:56:25.130Z,6.18
2022-11-05T22:58:53.550Z,5.75
2022-11-05T23:01:22.424Z,5.62
2022-11-05T23:03:52.747Z,5.87
2022-11-05T23:06:41.392Z,6.55
2022-11-05T23:09:33.327Z,6.05
2022-11-05T23:12:01.638Z,6.25
2022-11-05T23:14:29.011Z,5.85
2022-11-05T23:17:14.974Z,6.37
2022-11-05T23:20:01.469Z,6.78
2022-11-05T23:22:49.453Z,6.62
2022-11-05T23:25:20.116Z,6.40
2022-11-05T23:27:51.517Z,6.43
2022-11-05T23:30:25.053Z,7.00
2022-11-05T23:32:53.019Z,6.28
2022-11-05T23:35:39.245Z,6.65
2022-11-05T23:38:25.169Z,6.70
2022-11-05T23:41:11.423Z,6.80
2022-11-05T23:43:57.511Z,7.57
2022-11-05T23:46:43.403Z,7.40
2022-11-05T23:49:10.695Z,6.75
2022-11-05T23:51:38.306Z,6.75
2022-11-05T23:54:05.663Z,6.55
2022-11-05T23:56:33.096Z,7.10
2022-11-05T23:59:00.698Z,6.70
